sensor_id;sensor_type;location;lat;lon;timestamp;pressure;altitude;pressure_sealevel;temperature;humidity
11223;BME280;5668;52.012;8.724;2024-03-08T00:01:25;100673.63;;;4.72;80.12
11223;BME280;5668;52.012;8.724;2024-03-08T00:03:54;100670.16;;;4.73;79.98
11223;BME280;5668;52.012;8.724;2024-03-08T00:06:21;100669.50;;;4.68;79.77
11223;BME280;5668;52.012;8.724;2024-03-08T00:08:48;100675.16;;;4.76;79.74
11223;BME280;5668;52.012;8.724;2024-03-08T00:11:17;100675.75;;;4.83;79.59
11223;BME280;5668;52.012;8.724;2024-03-08T00:13:44;100665.47;;;4.83;79.13
11223;BME280;5668;52.012;8.724;2024-03-08T00:16:12;100668.81;;;4.85;78.56
11223;BME280;5668;52.012;8.724;2024-03-08T00:18:40;100663.88;;;4.80;78.63
11223;BME280;5668;52.012;8.724;2024-03-08T00:21:09;100664.88;;;4.76;79.00
11223;BME280;5668;52.012;8.724;2024-03-08T00:23:36;100663.88;;;4.80;79.24
11223;BME280;5668;52.012;8.724;2024-03-08T00:26:03;100660.44;;;4.80;79.06
11223;BME280;5668;52.012;8.724;2024-03-08T00:28:31;100656.97;;;4.81;78.92
11223;BME280;5668;52.012;8.724;2024-03-08T00:31:00;100661.22;;;4.82;79.43
11223;BME280;5668;52.012;8.724;2024-03-08T00:33:27;100657.03;;;4.79;78.60
11223;BME280;5668;52.012;8.724;2024-03-08T00:35:54;100657.78;;;4.81;78.60
11223;BME280;5668;52.012;8.724;2024-03-08T00:38:23;100657.22;;;4.75;78.35
11223;BME280;5668;52.012;8.724;2024-03-08T00:40:50;100655.38;;;4.78;78.73
11223;BME280;5668;52.012;8.724;2024-03-08T00:43:17;100656.25;;;4.77;78.62
11223;BME280;5668;52.012;8.724;2024-03-08T00:45:44;100649.31;;;4.79;78.19
11223;BME280;5668;52.012;8.724;2024-03-08T00:48:12;100649.25;;;4.81;78.47
11223;BME280;5668;52.012;8.724;2024-03-08T00:50:39;100642.59;;;4.75;77.95
11223;BME280;5668;52.012;8.724;2024-03-08T00:53:06;100647.63;;;4.78;78.31
11223;BME280;5668;52.012;8.724;2024-03-08T00:55:35;100645.97;;;4.77;77.79
11223;BME280;5668;52.012;8.724;2024-03-08T00:58:02;100640.81;;;4.77;78.53
11223;BME280;5668;52.012;8.724;2024-03-08T01:00:29;100639.13;;;4.76;78.14
11223;BME280;5668;52.012;8.724;2024-03-08T01:02:57;100630.41;;;4.80;78.30
11223;BME280;5668;52.012;8.724;2024-03-08T01:05:26;100632.03;;;4.81;78.18
11223;BME280;5668;52.012;8.724;2024-03-08T01:07:53;100628.53;;;4.84;78.00
11223;BME280;5668;52.012;8.724;2024-03-08T01:10:21;100628.34;;;4.88;78.27
11223;BME280;5668;52.012;8.724;2024-03-08T01:12:50;100629.16;;;4.89;78.13
11223;BME280;5668;52.012;8.724;2024-03-08T01:15:17;100620.63;;;4.88;77.68
11223;BME280;5668;52.012;8.724;2024-03-08T01:17:45;100618.16;;;4.85;77.47
11223;BME280;5668;52.012;8.724;2024-03-08T01:20:13;100608.75;;;4.84;77.61
11223;BME280;5668;52.012;8.724;2024-03-08T01:22:41;100614.94;;;4.80;77.71
11223;BME280;5668;52.012;8.724;2024-03-08T01:25:08;100600.34;;;4.81;77.58
11223;BME280;5668;52.012;8.724;2024-03-08T01:27:35;100601.41;;;4.75;76.90
11223;BME280;5668;52.012;8.724;2024-03-08T01:30:05;100595.69;;;4.68;77.62
11223;BME280;5668;52.012;8.724;2024-03-08T01:32:35;100589.91;;;4.63;78.33
11223;BME280;5668;52.012;8.724;2024-03-08T01:35:02;100590.91;;;4.59;78.14
11223;BME280;5668;52.012;8.724;2024-03-08T01:37:30;100586.84;;;4.54;78.61
11223;BME280;5668;52.012;8.724;2024-03-08T01:39:57;100591.88;;;4.57;79.08
11223;BME280;5668;52.012;8.724;2024-03-08T01:42:24;100577.97;;;4.61;79.12
11223;BME280;5668;52.012;8.724;2024-03-08T01:44:52;100574.25;;;4.68;79.20
11223;BME280;5668;52.012;8.724;2024-03-08T01:47:22;100576.56;;;4.74;79.30
11223;BME280;5668;52.012;8.724;2024-03-08T01:49:49;100568.72;;;4.77;79.37
11223;BME280;5668;52.012;8.724;2024-03-08T01:52:17;100569.56;;;4.78;79.15
11223;BME280;5668;52.012;8.724;2024-03-08T01:54:48;100566.94;;;4.79;79.17
11223;BME280;5668;52.012;8.724;2024-03-08T01:57:16;100563.47;;;4.80;79.57
11223;BME280;5668;52.012;8.724;2024-03-08T01:59:43;100554.06;;;4.79;79.24
11223;BME280;5668;52.012;8.724;2024-03-08T02:02:12;100553.16;;;4.80;79.18
11223;BME280;5668;52.012;8.724;2024-03-08T02:04:43;100559.22;;;4.79;79.42
11223;BME280;5668;52.012;8.724;2024-03-08T02:07:11;100546.34;;;4.79;79.46
11223;BME280;5668;52.012;8.724;2024-03-08T02:09:38;100555.03;;;4.77;79.29
11223;BME280;5668;52.012;8.724;2024-03-08T02:12:06;100555.09;;;4.75;79.28
11223;BME280;5668;52.012;8.724;2024-03-08T02:14:34;100557.28;;;4.64;78.71
11223;BME280;5668;52.012;8.724;2024-03-08T02:17:02;100551.25;;;4.65;79.11
11223;BME280;5668;52.012;8.724;2024-03-08T02:19:30;100552.91;;;4.66;79.33
11223;BME280;5668;52.012;8.724;2024-03-08T02:22:00;100549.34;;;4.68;79.33
11223;BME280;5668;52.012;8.724;2024-03-08T02:24:30;100545.19;;;4.66;79.15
11223;BME280;5668;52.012;8.724;2024-03-08T02:26:58;100538.38;;;4.65;79.29
11223;BME280;5668;52.012;8.724;2024-03-08T02:29:25;100543.53;;;4.65;79.10
11223;BME280;5668;52.012;8.724;2024-03-08T02:31:52;100537.47;;;4.66;79.57
11223;BME280;5668;52.012;8.724;2024-03-08T02:34:21;100534.06;;;4.65;79.37
11223;BME280;5668;52.012;8.724;2024-03-08T02:36:48;100529.81;;;4.64;79.13
11223;BME280;5668;52.012;8.724;2024-03-08T02:39:17;100527.25;;;4.64;79.15
11223;BME280;5668;52.012;8.724;2024-03-08T02:41:45;100517.06;;;4.61;79.16
11223;BME280;5668;52.012;8.724;2024-03-08T02:44:13;100526.56;;;4.59;79.26
11223;BME280;5668;52.012;8.724;2024-03-08T02:46:40;100523.25;;;4.57;79.25
11223;BME280;5668;52.012;8.724;2024-03-08T02:49:08;100522.34;;;4.58;79.20
11223;BME280;5668;52.012;8.724;2024-03-08T02:51:35;100518.16;;;4.56;78.95
11223;BME280;5668;52.012;8.724;2024-03-08T02:54:02;100517.25;;;4.57;79.18
11223;BME280;5668;52.012;8.724;2024-03-08T02:56:32;100515.69;;;4.53;78.94
11223;BME280;5668;52.012;8.724;2024-03-08T02:59:00;100521.63;;;4.55;78.87
11223;BME280;5668;52.012;8.724;2024-03-08T03:01:28;100520.09;;;4.51;78.76
11223;BME280;5668;52.012;8.724;2024-03-08T03:03:56;100511.59;;;4.49;78.59
11223;BME280;5668;52.012;8.724;2024-03-08T03:06:24;100507.47;;;4.45;78.22
11223;BME280;5668;52.012;8.724;2024-03-08T03:08:52;100505.88;;;4.42;78.19
11223;BME280;5668;52.012;8.724;2024-03-08T03:11:19;100505.16;;;4.39;78.27
11223;BME280;5668;52.012;8.724;2024-03-08T03:13:49;100503.47;;;4.38;78.66
11223;BME280;5668;52.012;8.724;2024-03-08T03:16:19;100503.72;;;4.32;78.66
11223;BME280;5668;52.012;8.724;2024-03-08T03:18:47;100500.38;;;4.29;78.64
11223;BME280;5668;52.012;8.724;2024-03-08T03:21:14;100491.91;;;4.27;79.05
11223;BME280;5668;52.012;8.724;2024-03-08T03:23:41;100485.34;;;4.20;78.74
11223;BME280;5668;52.012;8.724;2024-03-08T03:26:09;100485.56;;;4.14;79.02
11223;BME280;5668;52.012;8.724;2024-03-08T03:28:38;100480.88;;;4.04;78.88
11223;BME280;5668;52.012;8.724;2024-03-08T03:31:07;100476.41;;;3.87;78.63
11223;BME280;5668;52.012;8.724;2024-03-08T03:33:40;100480.38;;;3.74;79.78
11223;BME280;5668;52.012;8.724;2024-03-08T03:36:07;100471.03;;;3.71;80.50
11223;BME280;5668;52.012;8.724;2024-03-08T03:38:35;100475.22;;;3.74;79.60
11223;BME280;5668;52.012;8.724;2024-03-08T03:41:03;100482.09;;;3.73;80.52
11223;BME280;5668;52.012;8.724;2024-03-08T03:43:36;100472.72;;;3.72;80.97
11223;BME280;5668;52.012;8.724;2024-03-08T03:46:07;100469.84;;;3.80;80.55
11223;BME280;5668;52.012;8.724;2024-03-08T03:48:36;100465.41;;;3.83;80.56
11223;BME280;5668;52.012;8.724;2024-03-08T03:51:03;100468.88;;;3.82;80.34
11223;BME280;5668;52.012;8.724;2024-03-08T03:53:31;100472.31;;;3.83;80.21
11223;BME280;5668;52.012;8.724;2024-03-08T03:55:58;100465.34;;;3.85;80.79
11223;BME280;5668;52.012;8.724;2024-03-08T03:58:25;100461.78;;;3.89;80.14
11223;BME280;5668;52.012;8.724;2024-03-08T04:00:54;100464.34;;;3.89;80.02
11223;BME280;5668;52.012;8.724;2024-03-08T04:03:23;100453.38;;;3.84;80.47
11223;BME280;5668;52.012;8.724;2024-03-08T04:05:50;100456.88;;;3.83;80.51
11223;BME280;5668;52.012;8.724;2024-03-08T04:08:18;100462.91;;;3.82;80.01
11223;BME280;5668;52.012;8.724;2024-03-08T04:10:45;100454.16;;;3.86;80.79
11223;BME280;5668;52.012;8.724;2024-03-08T04:13:12;100447.34;;;3.85;80.32
11223;BME280;5668;52.012;8.724;2024-03-08T04:15:41;100449.97;;;3.83;80.78
11223;BME280;5668;52.012;8.724;2024-03-08T04:18:10;100452.38;;;3.88;80.08
11223;BME280;5668;52.012;8.724;2024-03-08T04:20:38;100447.50;;;3.82;79.83
11223;BME280;5668;52.012;8.724;2024-03-08T04:23:06;100447.34;;;3.85;80.19
11223;BME280;5668;52.012;8.724;2024-03-08T04:25:33;100436.97;;;3.88;80.40
11223;BME280;5668;52.012;8.724;2024-03-08T04:28:00;100444.72;;;3.86;80.58
11223;BME280;5668;52.012;8.724;2024-03-08T04:30:27;100444.09;;;3.81;80.30
11223;BME280;5668;52.012;8.724;2024-03-08T04:32:56;100428.97;;;3.74;80.47
11223;BME280;5668;52.012;8.724;2024-03-08T04:35:23;100435.66;;;3.78;80.21
11223;BME280;5668;52.012;8.724;2024-03-08T04:37:52;100432.31;;;3.76;80.98
11223;BME280;5668;52.012;8.724;2024-03-08T04:40:20;100426.34;;;3.75;80.86
11223;BME280;5668;52.012;8.724;2024-03-08T04:42:48;100425.31;;;3.79;80.75
11223;BME280;5668;52.012;8.724;2024-03-08T04:45:16;100426.78;;;3.85;80.58
11223;BME280;5668;52.012;8.724;2024-03-08T04:47:44;100426.69;;;3.88;80.77
11223;BME280;5668;52.012;8.724;2024-03-08T04:50:12;100421.66;;;3.85;80.22
11223;BME280;5668;52.012;8.724;2024-03-08T04:52:40;100420.59;;;3.91;79.93
11223;BME280;5668;52.012;8.724;2024-03-08T04:55:09;100417.03;;;3.93;80.33
11223;BME280;5668;52.012;8.724;2024-03-08T04:57:36;100412.66;;;3.95;79.83
11223;BME280;5668;52.012;8.724;2024-03-08T05:00:03;100410.88;;;3.97;80.58
11223;BME280;5668;52.012;8.724;2024-03-08T05:02:36;100407.53;;;3.95;80.25
11223;BME280;5668;52.012;8.724;2024-03-08T05:05:05;100401.34;;;3.79;79.38
11223;BME280;5668;52.012;8.724;2024-03-08T05:07:33;100399.09;;;3.71;80.26
11223;BME280;5668;52.012;8.724;2024-03-08T05:10:01;100402.09;;;3.61;80.18
11223;BME280;5668;52.012;8.724;2024-03-08T05:12:30;100397.31;;;3.52;80.10
11223;BME280;5668;52.012;8.724;2024-03-08T05:14:58;100391.41;;;3.49;80.68
11223;BME280;5668;52.012;8.724;2024-03-08T05:17:25;100391.69;;;3.42;80.53
11223;BME280;5668;52.012;8.724;2024-03-08T05:19:52;100391.75;;;3.40;81.35
11223;BME280;5668;52.012;8.724;2024-03-08T05:22:19;100397.03;;;3.37;81.61
11223;BME280;5668;52.012;8.724;2024-03-08T05:24:46;100396.09;;;3.38;82.12
11223;BME280;5668;52.012;8.724;2024-03-08T05:27:14;100390.84;;;3.41;82.01
11223;BME280;5668;52.012;8.724;2024-03-08T05:29:42;100394.47;;;3.37;82.02
11223;BME280;5668;52.012;8.724;2024-03-08T05:32:09;100398.03;;;3.33;82.13
11223;BME280;5668;52.012;8.724;2024-03-08T05:34:38;100394.66;;;3.31;81.81
11223;BME280;5668;52.012;8.724;2024-03-08T05:37:05;100390.38;;;3.32;83.29
11223;BME280;5668;52.012;8.724;2024-03-08T05:39:33;100393.03;;;3.30;83.09
11223;BME280;5668;52.012;8.724;2024-03-08T05:42:00;100393.13;;;3.27;83.17
11223;BME280;5668;52.012;8.724;2024-03-08T05:44:27;100393.84;;;3.31;82.84
11223;BME280;5668;52.012;8.724;2024-03-08T05:46:58;100386.88;;;3.34;82.62
11223;BME280;5668;52.012;8.724;2024-03-08T05:49:25;100383.25;;;3.38;82.85
11223;BME280;5668;52.012;8.724;2024-03-08T05:51:52;100390.25;;;3.35;83.14
11223;BME280;5668;52.012;8.724;2024-03-08T05:54:20;100390.38;;;3.32;82.24
11223;BME280;5668;52.012;8.724;2024-03-08T05:56:50;100386.75;;;3.37;83.00
11223;BME280;5668;52.012;8.724;2024-03-08T05:59:18;100393.31;;;3.44;82.74
11223;BME280;5668;52.012;8.724;2024-03-08T06:01:46;100390.56;;;3.49;83.07
11223;BME280;5668;52.012;8.724;2024-03-08T06:04:14;100388.00;;;3.49;82.08
11223;BME280;5668;52.012;8.724;2024-03-08T06:06:44;100392.03;;;3.55;82.11
11223;BME280;5668;52.012;8.724;2024-03-08T06:09:11;100391.81;;;3.61;82.26
11223;BME280;5668;52.012;8.724;2024-03-08T06:11:42;100385.66;;;3.65;82.41
11223;BME280;5668;52.012;8.724;2024-03-08T06:14:10;100382.00;;;3.70;82.68
11223;BME280;5668;52.012;8.724;2024-03-08T06:16:37;100383.72;;;3.70;81.63
11223;BME280;5668;52.012;8.724;2024-03-08T06:19:04;100386.50;;;3.65;81.70
11223;BME280;5668;52.012;8.724;2024-03-08T06:21:33;100389.00;;;3.67;81.92
11223;BME280;5668;52.012;8.724;2024-03-08T06:24:00;100383.88;;;3.67;81.82
11223;BME280;5668;52.012;8.724;2024-03-08T06:26:27;100389.75;;;3.69;81.27
11223;BME280;5668;52.012;8.724;2024-03-08T06:28:55;100384.03;;;3.62;81.08
11223;BME280;5668;52.012;8.724;2024-03-08T06:31:22;100389.91;;;3.66;81.26
11223;BME280;5668;52.012;8.724;2024-03-08T06:33:49;100384.63;;;3.69;80.83
11223;BME280;5668;52.012;8.724;2024-03-08T06:36:17;100388.94;;;3.68;80.86
11223;BME280;5668;52.012;8.724;2024-03-08T06:38:49;100385.41;;;3.71;81.01
11223;BME280;5668;52.012;8.724;2024-03-08T06:41:16;100380.25;;;3.71;80.95
11223;BME280;5668;52.012;8.724;2024-03-08T06:43:44;100387.38;;;3.64;80.22
11223;BME280;5668;52.012;8.724;2024-03-08T06:46:11;100386.06;;;3.54;81.08
11223;BME280;5668;52.012;8.724;2024-03-08T06:48:39;100379.28;;;3.53;81.61
11223;BME280;5668;52.012;8.724;2024-03-08T06:51:07;100385.91;;;3.59;82.25
11223;BME280;5668;52.012;8.724;2024-03-08T06:53:34;100385.06;;;3.58;82.47
11223;BME280;5668;52.012;8.724;2024-03-08T06:56:03;100384.16;;;3.59;82.60
11223;BME280;5668;52.012;8.724;2024-03-08T06:58:30;100382.59;;;3.55;82.22
11223;BME280;5668;52.012;8.724;2024-03-08T07:00:58;100380.81;;;3.57;82.37
11223;BME280;5668;52.012;8.724;2024-03-08T07:03:27;100385.97;;;3.57;82.30
11223;BME280;5668;52.012;8.724;2024-03-08T07:05:55;100389.38;;;3.58;82.51
11223;BME280;5668;52.012;8.724;2024-03-08T07:08:24;100383.59;;;3.53;83.43
11223;BME280;5668;52.012;8.724;2024-03-08T07:10:52;100388.47;;;3.59;82.71
11223;BME280;5668;52.012;8.724;2024-03-08T07:13:21;100389.25;;;3.61;82.09
11223;BME280;5668;52.012;8.724;2024-03-08T07:15:48;100388.22;;;3.65;82.45
11223;BME280;5668;52.012;8.724;2024-03-08T07:18:16;100393.88;;;3.73;82.72
11223;BME280;5668;52.012;8.724;2024-03-08T07:20:43;100398.91;;;3.76;82.32
11223;BME280;5668;52.012;8.724;2024-03-08T07:23:10;100396.97;;;3.81;83.07
11223;BME280;5668;52.012;8.724;2024-03-08T07:25:58;100394.78;;;3.92;82.50
11223;BME280;5668;52.012;8.724;2024-03-08T07:28:28;100389.47;;;3.97;82.77
11223;BME280;5668;52.012;8.724;2024-03-08T07:30:57;100385.88;;;4.01;82.52
11223;BME280;5668;52.012;8.724;2024-03-08T07:33:38;100387.28;;;4.08;82.86
11223;BME280;5668;52.012;8.724;2024-03-08T07:36:05;100385.28;;;4.14;82.45
11223;BME280;5668;52.012;8.724;2024-03-08T07:38:33;100390.25;;;4.19;82.44
11223;BME280;5668;52.012;8.724;2024-03-08T07:41:00;100384.00;;;4.24;82.22
11223;BME280;5668;52.012;8.724;2024-03-08T07:43:29;100387.34;;;4.26;82.20
11223;BME280;5668;52.012;8.724;2024-03-08T07:45:56;100388.88;;;4.31;82.54
11223;BME280;5668;52.012;8.724;2024-03-08T07:48:23;100382.63;;;4.36;82.08
11223;BME280;5668;52.012;8.724;2024-03-08T07:50:50;100381.56;;;4.42;82.03
11223;BME280;5668;52.012;8.724;2024-03-08T07:53:17;100383.84;;;4.48;81.96
11223;BME280;5668;52.012;8.724;2024-03-08T07:55:45;100373.28;;;4.54;81.41
11223;BME280;5668;52.012;8.724;2024-03-08T07:58:12;100368.75;;;4.59;81.15
11223;BME280;5668;52.012;8.724;2024-03-08T08:00:41;100369.25;;;4.67;80.88
11223;BME280;5668;52.012;8.724;2024-03-08T08:03:09;100373.16;;;4.76;81.02
11223;BME280;5668;52.012;8.724;2024-03-08T08:05:36;100362.50;;;4.83;80.59
11223;BME280;5668;52.012;8.724;2024-03-08T08:08:04;100365.88;;;4.85;80.20
11223;BME280;5668;52.012;8.724;2024-03-08T08:10:32;100370.88;;;4.88;80.29
11223;BME280;5668;52.012;8.724;2024-03-08T08:12:59;100360.25;;;4.96;79.98
11223;BME280;5668;52.012;8.724;2024-03-08T08:15:27;100365.03;;;5.03;80.09
11223;BME280;5668;52.012;8.724;2024-03-08T08:17:56;100366.41;;;5.11;80.18
11223;BME280;5668;52.012;8.724;2024-03-08T08:20:23;100363.56;;;5.17;80.08
11223;BME280;5668;52.012;8.724;2024-03-08T08:22:52;100353.72;;;5.25;80.05
11223;BME280;5668;52.012;8.724;2024-03-08T08:25:21;100350.25;;;5.26;79.38
11223;BME280;5668;52.012;8.724;2024-03-08T08:27:50;100347.31;;;5.33;79.22
11223;BME280;5668;52.012;8.724;2024-03-08T08:30:18;100347.84;;;5.40;78.65
11223;BME280;5668;52.012;8.724;2024-03-08T08:32:46;100344.13;;;5.45;78.52
11223;BME280;5668;52.012;8.724;2024-03-08T08:35:15;100343.69;;;5.55;78.25
11223;BME280;5668;52.012;8.724;2024-03-08T08:37:45;100342.69;;;5.57;77.98
11223;BME280;5668;52.012;8.724;2024-03-08T08:40:13;100344.22;;;5.61;77.37
11223;BME280;5668;52.012;8.724;2024-03-08T08:42:43;100346.50;;;5.67;76.86
11223;BME280;5668;52.012;8.724;2024-03-08T08:45:12;100329.88;;;5.73;76.74
11223;BME280;5668;52.012;8.724;2024-03-08T08:47:39;100323.75;;;5.75;76.38
11223;BME280;5668;52.012;8.724;2024-03-08T08:50:10;100325.88;;;5.84;76.37
11223;BME280;5668;52.012;8.724;2024-03-08T08:52:40;100323.84;;;5.91;75.81
11223;BME280;5668;52.012;8.724;2024-03-08T08:55:09;100318.38;;;5.97;75.40
11223;BME280;5668;52.012;8.724;2024-03-08T08:57:40;100317.97;;;6.05;75.24
11223;BME280;5668;52.012;8.724;2024-03-08T09:00:08;100321.91;;;6.12;74.91
11223;BME280;5668;52.012;8.724;2024-03-08T09:02:40;100315.69;;;6.16;74.56
11223;BME280;5668;52.012;8.724;2024-03-08T09:05:08;100307.63;;;6.22;73.44
11223;BME280;5668;52.012;8.724;2024-03-08T09:07:35;100315.97;;;6.27;73.51
11223;BME280;5668;52.012;8.724;2024-03-08T09:10:06;100309.63;;;6.33;73.23
11223;BME280;5668;52.012;8.724;2024-03-08T09:12:35;100315.25;;;6.41;73.23
11223;BME280;5668;52.012;8.724;2024-03-08T09:15:03;100308.19;;;6.44;72.43
11223;BME280;5668;52.012;8.724;2024-03-08T09:17:31;100307.84;;;6.50;71.43
11223;BME280;5668;52.012;8.724;2024-03-08T09:19:59;100296.28;;;6.57;71.38
11223;BME280;5668;52.012;8.724;2024-03-08T09:22:26;100298.19;;;6.70;71.41
11223;BME280;5668;52.012;8.724;2024-03-08T09:24:53;100300.28;;;6.79;71.93
11223;BME280;5668;52.012;8.724;2024-03-08T09:27:22;100291.13;;;6.89;71.62
11223;BME280;5668;52.012;8.724;2024-03-08T09:29:50;100285.53;;;6.96;71.53
11223;BME280;5668;52.012;8.724;2024-03-08T09:32:17;100288.44;;;7.06;71.69
11223;BME280;5668;52.012;8.724;2024-03-08T09:34:44;100282.03;;;7.13;71.66
11223;BME280;5668;52.012;8.724;2024-03-08T09:37:11;100269.38;;;7.23;71.72
11223;BME280;5668;52.012;8.724;2024-03-08T09:39:38;100266.22;;;7.33;70.88
11223;BME280;5668;52.012;8.724;2024-03-08T09:42:06;100261.34;;;7.43;70.55
11223;BME280;5668;52.012;8.724;2024-03-08T09:44:35;100263.28;;;7.54;70.33
11223;BME280;5668;52.012;8.724;2024-03-08T09:47:05;100256.84;;;7.61;69.91
11223;BME280;5668;52.012;8.724;2024-03-08T09:49:32;100236.63;;;7.67;69.57
11223;BME280;5668;52.012;8.724;2024-03-08T09:52:00;100237.66;;;7.79;69.12
11223;BME280;5668;52.012;8.724;2024-03-08T09:54:30;100229.53;;;7.85;69.20
11223;BME280;5668;52.012;8.724;2024-03-08T09:56:58;100222.88;;;7.95;69.43
11223;BME280;5668;52.012;8.724;2024-03-08T09:59:25;100218.09;;;8.03;68.40
11223;BME280;5668;52.012;8.724;2024-03-08T10:02:14;100223.97;;;8.20;69.39
11223;BME280;5668;52.012;8.724;2024-03-08T10:04:42;100210.84;;;8.23;67.65
11223;BME280;5668;52.012;8.724;2024-03-08T10:07:12;100213.03;;;8.29;66.99
11223;BME280;5668;52.012;8.724;2024-03-08T10:09:39;100205.88;;;8.34;66.10
11223;BME280;5668;52.012;8.724;2024-03-08T10:12:08;100199.00;;;8.47;67.09
11223;BME280;5668;52.012;8.724;2024-03-08T10:14:40;100196.28;;;8.63;67.48
11223;BME280;5668;52.012;8.724;2024-03-08T10:17:08;100194.47;;;8.77;67.89
11223;BME280;5668;52.012;8.724;2024-03-08T10:19:36;100193.66;;;8.89;66.61
11223;BME280;5668;52.012;8.724;2024-03-08T10:22:05;100186.22;;;8.98;66.07
11223;BME280;5668;52.012;8.724;2024-03-08T10:24:32;100181.69;;;9.14;66.41
11223;BME280;5668;52.012;8.724;2024-03-08T10:27:00;100180.44;;;9.19;65.73
11223;BME280;5668;52.012;8.724;2024-03-08T10:29:31;100175.50;;;9.29;65.80
11223;BME280;5668;52.012;8.724;2024-03-08T10:31:58;100174.47;;;9.31;63.47
11223;BME280;5668;52.012;8.724;2024-03-08T10:34:25;100182.94;;;9.33;62.00
11223;BME280;5668;52.012;8.724;2024-03-08T10:37:00;100173.53;;;9.45;62.68
11223;BME280;5668;52.012;8.724;2024-03-08T10:39:34;100160.66;;;9.56;63.37
11223;BME280;5668;52.012;8.724;2024-03-08T10:42:04;100163.97;;;9.58;61.60
11223;BME280;5668;52.012;8.724;2024-03-08T10:44:40;100156.19;;;9.58;61.12
11223;BME280;5668;52.012;8.724;2024-03-08T10:47:18;100170.91;;;9.70;61.11
11223;BME280;5668;52.012;8.724;2024-03-08T10:49:52;100163.56;;;9.77;62.13
11223;BME280;5668;52.012;8.724;2024-03-08T10:52:23;100159.09;;;9.79;60.44
11223;BME280;5668;52.012;8.724;2024-03-08T10:54:52;100163.75;;;9.87;61.08
11223;BME280;5668;52.012;8.724;2024-03-08T10:57:20;100157.81;;;9.97;61.22
11223;BME280;5668;52.012;8.724;2024-03-08T10:59:50;100150.72;;;10.12;61.53
11223;BME280;5668;52.012;8.724;2024-03-08T11:02:18;100148.22;;;10.23;62.01
11223;BME280;5668;52.012;8.724;2024-03-08T11:04:47;100142.88;;;10.37;62.35
11223;BME280;5668;52.012;8.724;2024-03-08T11:07:15;100146.16;;;10.52;63.60
11223;BME280;5668;52.012;8.724;2024-03-08T11:09:48;100138.34;;;10.52;59.73
11223;BME280;5668;52.012;8.724;2024-03-08T11:12:26;100132.59;;;10.60;59.32
11223;BME280;5668;52.012;8.724;2024-03-08T11:14:55;100136.06;;;10.71;61.06
11223;BME280;5668;52.012;8.724;2024-03-08T11:17:40;100126.53;;;10.83;61.13
11223;BME280;5668;52.012;8.724;2024-03-08T11:20:10;100122.97;;;10.84;59.23
11223;BME280;5668;52.012;8.724;2024-03-08T11:22:42;100113.00;;;11.02;60.04
11223;BME280;5668;52.012;8.724;2024-03-08T11:25:37;100119.84;;;11.03;58.72
11223;BME280;5668;52.012;8.724;2024-03-08T11:28:10;100109.13;;;11.18;59.43
11223;BME280;5668;52.012;8.724;2024-03-08T11:30:43;100102.28;;;11.29;60.12
11223;BME280;5668;52.012;8.724;2024-03-08T11:33:12;100098.72;;;11.30;58.28
11223;BME280;5668;52.012;8.724;2024-03-08T11:35:39;100094.03;;;11.35;58.06
11223;BME280;5668;52.012;8.724;2024-03-08T11:38:12;100089.63;;;11.35;56.41
11223;BME280;5668;52.012;8.724;2024-03-08T11:40:41;100082.06;;;11.32;56.04
11223;BME280;5668;52.012;8.724;2024-03-08T11:43:09;100075.44;;;11.50;57.61
11223;BME280;5668;52.012;8.724;2024-03-08T11:45:36;100076.84;;;11.54;54.41
11223;BME280;5668;52.012;8.724;2024-03-08T11:48:04;100066.22;;;11.57;55.22
11223;BME280;5668;52.012;8.724;2024-03-08T11:50:32;100070.13;;;11.63;54.11
11223;BME280;5668;52.012;8.724;2024-03-08T11:53:03;100057.09;;;11.74;55.24
11223;BME280;5668;52.012;8.724;2024-03-08T11:55:31;100061.72;;;11.82;54.64
11223;BME280;5668;52.012;8.724;2024-03-08T11:58:06;100050.56;;;11.91;54.94
11223;BME280;5668;52.012;8.724;2024-03-08T12:00:36;100049.97;;;11.98;54.00
11223;BME280;5668;52.012;8.724;2024-03-08T12:03:08;100044.63;;;12.00;54.96
11223;BME280;5668;52.012;8.724;2024-03-08T12:05:36;100044.84;;;12.08;55.79
11223;BME280;5668;52.012;8.724;2024-03-08T12:08:05;100037.75;;;12.10;53.42
11223;BME280;5668;52.012;8.724;2024-03-08T12:10:35;100034.16;;;12.11;53.12
11223;BME280;5668;52.012;8.724;2024-03-08T12:13:06;100026.00;;;12.16;53.48
11223;BME280;5668;52.012;8.724;2024-03-08T12:15:40;100026.00;;;12.16;52.36
11223;BME280;5668;52.012;8.724;2024-03-08T12:18:07;100024.09;;;12.18;51.85
11223;BME280;5668;52.012;8.724;2024-03-08T12:20:38;100013.75;;;12.27;52.55
11223;BME280;5668;52.012;8.724;2024-03-08T12:23:14;100018.28;;;12.14;51.62
11223;BME280;5668;52.012;8.724;2024-03-08T12:25:42;99996.22;;;12.29;53.19
11223;BME280;5668;52.012;8.724;2024-03-08T12:28:12;100007.06;;;12.34;52.27
11223;BME280;5668;52.012;8.724;2024-03-08T12:30:46;100004.53;;;12.44;51.12
11223;BME280;5668;52.012;8.724;2024-03-08T12:33:15;99999.09;;;12.47;51.07
11223;BME280;5668;52.012;8.724;2024-03-08T12:35:51;99992.47;;;12.43;49.32
11223;BME280;5668;52.012;8.724;2024-03-08T12:38:21;99988.06;;;12.44;51.98
11223;BME280;5668;52.012;8.724;2024-03-08T12:40:51;99982.66;;;12.35;48.90
11223;BME280;5668;52.012;8.724;2024-03-08T12:43:24;99988.63;;;12.26;50.97
11223;BME280;5668;52.012;8.724;2024-03-08T12:45:51;99997.78;;;12.21;49.91
11223;BME280;5668;52.012;8.724;2024-03-08T12:48:19;99969.13;;;12.21;49.44
11223;BME280;5668;52.012;8.724;2024-03-08T12:50:46;99975.81;;;12.34;51.02
11223;BME280;5668;52.012;8.724;2024-03-08T12:53:17;99977.78;;;12.42;50.77
11223;BME280;5668;52.012;8.724;2024-03-08T12:55:44;99963.75;;;12.54;52.34
11223;BME280;5668;52.012;8.724;2024-03-08T12:58:12;99962.16;;;12.63;52.62
11223;BME280;5668;52.012;8.724;2024-03-08T13:00:40;99962.19;;;12.72;53.63
11223;BME280;5668;52.012;8.724;2024-03-08T13:03:09;99956.28;;;12.70;52.97
11223;BME280;5668;52.012;8.724;2024-03-08T13:05:36;99947.31;;;12.63;51.91
11223;BME280;5668;52.012;8.724;2024-03-08T13:08:06;99942.16;;;12.73;52.58
11223;BME280;5668;52.012;8.724;2024-03-08T13:10:38;99941.28;;;12.63;52.38
11223;BME280;5668;52.012;8.724;2024-03-08T13:13:05;99934.72;;;12.68;53.78
11223;BME280;5668;52.012;8.724;2024-03-08T13:15:32;99920.34;;;12.74;53.46
11223;BME280;5668;52.012;8.724;2024-03-08T13:18:01;99923.53;;;12.77;53.69